sensor_id;sensor_type;location;lat;lon;timestamp;P1;durP1;ratioP1;P2;durP2;ratioP2
4365;SDS011;2196;47.422;9.656;2023-05-13T00:01:42;2.27;;;2.03;;
4365;SDS011;2196;47.422;9.656;2023-05-13T00:04:09;1.50;;;1.50;;
4365;SDS011;2196;47.422;9.656;2023-05-13T00:06:36;2.93;;;1.50;;
4365;SDS011;2196;47.422;9.656;2023-05-13T00:09:03;1.50;;;1.40;;
4365;SDS011;2196;47.422;9.656;2023-05-13T00:11:31;1.00;;;1.00;;
4365;SDS011;2196;47.422;9.656;2023-05-13T00:13:59;0.80;;;0.80;;
4365;SDS011;2196;47.422;9.656;2023-05-13T00:16:26;1.10;;;1.10;;
4365;SDS011;2196;47.422;9.656;2023-05-13T00:18:53;1.40;;;1.40;;
4365;SDS011;2196;47.422;9.656;2023-05-13T00:21:20;1.40;;;1.30;;
4365;SDS011;2196;47.422;9.656;2023-05-13T00:23:47;1.60;;;1.50;;
4365;SDS011;2196;47.422;9.656;2023-05-13T00:26:14;2.13;;;2.03;;
4365;SDS011;2196;47.422;9.656;2023-05-13T00:28:42;2.27;;;2.17;;
4365;SDS011;2196;47.422;9.656;2023-05-13T00:31:09;2.20;;;2.10;;
4365;SDS011;2196;47.422;9.656;2023-05-13T00:33:36;2.30;;;2.20;;
4365;SDS011;2196;47.422;9.656;2023-05-13T00:36:03;4.33;;;1.97;;
4365;SDS011;2196;47.422;9.656;2023-05-13T00:38:31;2.63;;;2.53;;
4365;SDS011;2196;47.422;9.656;2023-05-13T00:40:58;2.50;;;2.30;;
4365;SDS011;2196;47.422;9.656;2023-05-13T00:43:25;1.87;;;1.77;;
4365;SDS011;2196;47.422;9.656;2023-05-13T00:45:54;2.00;;;1.90;;
4365;SDS011;2196;47.422;9.656;2023-05-13T00:48:21;1.93;;;1.90;;
4365;SDS011;2196;47.422;9.656;2023-05-13T00:50:48;2.37;;;2.13;;
4365;SDS011;2196;47.422;9.656;2023-05-13T00:53:16;1.63;;;1.63;;
4365;SDS011;2196;47.422;9.656;2023-05-13T00:55:44;2.00;;;1.90;;
4365;SDS011;2196;47.422;9.656;2023-05-13T00:58:11;2.27;;;2.07;;
4365;SDS011;2196;47.422;9.656;2023-05-13T01:00:40;2.30;;;2.10;;
4365;SDS011;2196;47.422;9.656;2023-05-13T01:03:16;2.03;;;1.93;;
4365;SDS011;2196;47.422;9.656;2023-05-13T01:05:52;1.40;;;1.40;;
4365;SDS011;2196;47.422;9.656;2023-05-13T01:08:27;2.13;;;1.80;;
4365;SDS011;2196;47.422;9.656;2023-05-13T01:11:01;2.20;;;2.10;;
4365;SDS011;2196;47.422;9.656;2023-05-13T01:13:32;2.97;;;1.67;;
4365;SDS011;2196;47.422;9.656;2023-05-13T01:16:09;2.30;;;2.20;;
4365;SDS011;2196;47.422;9.656;2023-05-13T01:18:42;2.37;;;2.33;;
4365;SDS011;2196;47.422;9.656;2023-05-13T01:21:11;2.60;;;2.40;;
4365;SDS011;2196;47.422;9.656;2023-05-13T01:23:39;2.33;;;2.23;;
4365;SDS011;2196;47.422;9.656;2023-05-13T01:26:06;1.30;;;1.30;;
4365;SDS011;2196;47.422;9.656;2023-05-13T01:28:33;1.87;;;1.77;;
4365;SDS011;2196;47.422;9.656;2023-05-13T01:31:00;2.47;;;2.13;;
4365;SDS011;2196;47.422;9.656;2023-05-13T01:33:27;2.30;;;1.80;;
4365;SDS011;2196;47.422;9.656;2023-05-13T01:35:55;1.90;;;1.80;;
4365;SDS011;2196;47.422;9.656;2023-05-13T01:38:22;2.87;;;1.70;;
4365;SDS011;2196;47.422;9.656;2023-05-13T01:40:52;3.93;;;2.17;;
4365;SDS011;2196;47.422;9.656;2023-05-13T01:43:21;1.83;;;1.73;;
4365;SDS011;2196;47.422;9.656;2023-05-13T01:45:48;3.50;;;3.20;;
4365;SDS011;2196;47.422;9.656;2023-05-13T01:48:15;1.93;;;1.83;;
4365;SDS011;2196;47.422;9.656;2023-05-13T01:50:44;1.67;;;1.57;;
4365;SDS011;2196;47.422;9.656;2023-05-13T01:53:11;2.73;;;2.60;;
4365;SDS011;2196;47.422;9.656;2023-05-13T01:55:38;2.17;;;1.97;;
4365;SDS011;2196;47.422;9.656;2023-05-13T01:58:06;1.60;;;1.60;;
4365;SDS011;2196;47.422;9.656;2023-05-13T02:00:33;1.87;;;1.70;;
4365;SDS011;2196;47.422;9.656;2023-05-13T02:03:00;1.77;;;1.70;;
4365;SDS011;2196;47.422;9.656;2023-05-13T02:05:28;2.60;;;1.90;;
4365;SDS011;2196;47.422;9.656;2023-05-13T02:07:55;2.37;;;2.07;;
4365;SDS011;2196;47.422;9.656;2023-05-13T02:10:22;2.17;;;2.07;;
4365;SDS011;2196;47.422;9.656;2023-05-13T02:12:49;1.67;;;1.67;;
4365;SDS011;2196;47.422;9.656;2023-05-13T02:15:17;2.33;;;2.13;;
4365;SDS011;2196;47.422;9.656;2023-05-13T02:17:44;1.80;;;1.57;;
4365;SDS011;2196;47.422;9.656;2023-05-13T02:20:12;2.27;;;2.10;;
4365;SDS011;2196;47.422;9.656;2023-05-13T02:22:39;1.53;;;1.47;;
4365;SDS011;2196;47.422;9.656;2023-05-13T02:25:07;2.20;;;2.03;;
4365;SDS011;2196;47.422;9.656;2023-05-13T02:27:35;2.53;;;2.43;;
4365;SDS011;2196;47.422;9.656;2023-05-13T02:30:02;4.47;;;4.17;;
4365;SDS011;2196;47.422;9.656;2023-05-13T02:32:31;4.57;;;4.27;;
4365;SDS011;2196;47.422;9.656;2023-05-13T02:34:58;5.13;;;4.77;;
4365;SDS011;2196;47.422;9.656;2023-05-13T02:37:24;4.43;;;4.03;;
4365;SDS011;2196;47.422;9.656;2023-05-13T02:39:51;4.07;;;3.77;;
4365;SDS011;2196;47.422;9.656;2023-05-13T02:42:18;3.80;;;3.60;;
4365;SDS011;2196;47.422;9.656;2023-05-13T02:44:45;5.00;;;4.63;;
4365;SDS011;2196;47.422;9.656;2023-05-13T02:47:12;3.83;;;3.53;;
4365;SDS011;2196;47.422;9.656;2023-05-13T02:49:40;3.73;;;3.53;;
4365;SDS011;2196;47.422;9.656;2023-05-13T02:52:07;3.93;;;3.73;;
4365;SDS011;2196;47.422;9.656;2023-05-13T02:54:34;4.53;;;4.20;;
4365;SDS011;2196;47.422;9.656;2023-05-13T02:57:01;6.03;;;5.53;;
4365;SDS011;2196;47.422;9.656;2023-05-13T02:59:28;6.17;;;5.67;;
4365;SDS011;2196;47.422;9.656;2023-05-13T03:01:55;6.03;;;5.60;;
4365;SDS011;2196;47.422;9.656;2023-05-13T03:04:22;5.27;;;4.77;;
4365;SDS011;2196;47.422;9.656;2023-05-13T03:06:51;4.27;;;3.63;;
4365;SDS011;2196;47.422;9.656;2023-05-13T03:09:18;4.33;;;3.93;;
4365;SDS011;2196;47.422;9.656;2023-05-13T03:11:45;10.67;;;5.33;;
4365;SDS011;2196;47.422;9.656;2023-05-13T03:14:12;3.80;;;3.60;;
4365;SDS011;2196;47.422;9.656;2023-05-13T03:16:39;2.40;;;2.30;;
4365;SDS011;2196;47.422;9.656;2023-05-13T03:19:06;2.73;;;2.60;;
4365;SDS011;2196;47.422;9.656;2023-05-13T03:21:33;2.37;;;2.27;;
4365;SDS011;2196;47.422;9.656;2023-05-13T03:24:01;2.13;;;2.03;;
4365;SDS011;2196;47.422;9.656;2023-05-13T03:26:28;2.33;;;2.07;;
4365;SDS011;2196;47.422;9.656;2023-05-13T03:28:55;2.43;;;2.33;;
4365;SDS011;2196;47.422;9.656;2023-05-13T03:31:22;2.60;;;2.50;;
4365;SDS011;2196;47.422;9.656;2023-05-13T03:33:49;2.50;;;2.40;;
4365;SDS011;2196;47.422;9.656;2023-05-13T03:36:16;3.33;;;3.13;;
4365;SDS011;2196;47.422;9.656;2023-05-13T03:38:43;2.90;;;2.67;;
4365;SDS011;2196;47.422;9.656;2023-05-13T03:41:11;3.20;;;3.00;;
4365;SDS011;2196;47.422;9.656;2023-05-13T03:43:41;3.20;;;3.07;;
4365;SDS011;2196;47.422;9.656;2023-05-13T03:46:08;3.67;;;3.47;;
4365;SDS011;2196;47.422;9.656;2023-05-13T03:48:35;3.70;;;3.50;;
4365;SDS011;2196;47.422;9.656;2023-05-13T03:51:02;4.27;;;4.07;;
4365;SDS011;2196;47.422;9.656;2023-05-13T03:53:29;4.37;;;3.97;;
4365;SDS011;2196;47.422;9.656;2023-05-13T03:55:56;3.37;;;3.17;;
4365;SDS011;2196;47.422;9.656;2023-05-13T03:58:25;4.83;;;3.70;;
4365;SDS011;2196;47.422;9.656;2023-05-13T04:00:52;3.83;;;3.63;;
4365;SDS011;2196;47.422;9.656;2023-05-13T04:03:19;4.03;;;3.63;;
4365;SDS011;2196;47.422;9.656;2023-05-13T04:05:46;4.83;;;4.40;;
4365;SDS011;2196;47.422;9.656;2023-05-13T04:08:13;3.77;;;3.37;;
4365;SDS011;2196;47.422;9.656;2023-05-13T04:10:41;4.70;;;4.40;;
4365;SDS011;2196;47.422;9.656;2023-05-13T04:13:08;5.17;;;4.77;;
4365;SDS011;2196;47.422;9.656;2023-05-13T04:15:36;5.03;;;4.70;;
4365;SDS011;2196;47.422;9.656;2023-05-13T04:18:03;4.80;;;4.57;;
4365;SDS011;2196;47.422;9.656;2023-05-13T04:20:30;6.23;;;5.73;;
4365;SDS011;2196;47.422;9.656;2023-05-13T04:22:57;6.20;;;5.70;;
4365;SDS011;2196;47.422;9.656;2023-05-13T04:25:25;6.60;;;6.13;;
4365;SDS011;2196;47.422;9.656;2023-05-13T04:27:52;6.30;;;5.70;;
4365;SDS011;2196;47.422;9.656;2023-05-13T04:30:19;6.93;;;6.43;;
4365;SDS011;2196;47.422;9.656;2023-05-13T04:32:48;7.03;;;6.37;;
4365;SDS011;2196;47.422;9.656;2023-05-13T04:35:15;6.17;;;5.77;;
4365;SDS011;2196;47.422;9.656;2023-05-13T04:37:42;7.00;;;6.27;;
4365;SDS011;2196;47.422;9.656;2023-05-13T04:40:10;6.57;;;6.07;;
4365;SDS011;2196;47.422;9.656;2023-05-13T04:42:37;7.40;;;6.73;;
4365;SDS011;2196;47.422;9.656;2023-05-13T04:45:04;7.20;;;6.70;;
4365;SDS011;2196;47.422;9.656;2023-05-13T04:47:32;6.83;;;6.33;;
4365;SDS011;2196;47.422;9.656;2023-05-13T04:50:03;6.50;;;6.00;;
4365;SDS011;2196;47.422;9.656;2023-05-13T04:52:31;7.00;;;6.40;;
4365;SDS011;2196;47.422;9.656;2023-05-13T04:55:02;7.60;;;7.00;;
4365;SDS011;2196;47.422;9.656;2023-05-13T04:57:29;22.13;;;12.87;;
4365;SDS011;2196;47.422;9.656;2023-05-13T04:59:56;9.50;;;8.67;;
4365;SDS011;2196;47.422;9.656;2023-05-13T05:02:23;9.00;;;8.10;;
4365;SDS011;2196;47.422;9.656;2023-05-13T05:04:50;8.03;;;7.43;;
4365;SDS011;2196;47.422;9.656;2023-05-13T05:07:18;7.53;;;7.03;;
4365;SDS011;2196;47.422;9.656;2023-05-13T05:09:46;8.20;;;7.53;;
4365;SDS011;2196;47.422;9.656;2023-05-13T05:12:13;9.63;;;8.77;;
4365;SDS011;2196;47.422;9.656;2023-05-13T05:14:40;8.47;;;7.83;;
4365;SDS011;2196;47.422;9.656;2023-05-13T05:17:07;9.23;;;8.53;;
4365;SDS011;2196;47.422;9.656;2023-05-13T05:19:34;9.73;;;9.03;;
4365;SDS011;2196;47.422;9.656;2023-05-13T05:22:01;9.70;;;8.83;;
4365;SDS011;2196;47.422;9.656;2023-05-13T05:24:29;8.77;;;8.07;;
4365;SDS011;2196;47.422;9.656;2023-05-13T05:26:56;8.10;;;7.37;;
4365;SDS011;2196;47.422;9.656;2023-05-13T05:29:23;9.53;;;8.73;;
4365;SDS011;2196;47.422;9.656;2023-05-13T05:31:50;8.13;;;7.53;;
4365;SDS011;2196;47.422;9.656;2023-05-13T05:34:17;8.60;;;7.80;;
4365;SDS011;2196;47.422;9.656;2023-05-13T05:36:44;14.30;;;9.23;;
4365;SDS011;2196;47.422;9.656;2023-05-13T05:39:11;8.90;;;7.67;;
4365;SDS011;2196;47.422;9.656;2023-05-13T05:41:39;8.30;;;7.50;;
4365;SDS011;2196;47.422;9.656;2023-05-13T05:44:06;9.53;;;8.73;;
4365;SDS011;2196;47.422;9.656;2023-05-13T05:46:33;10.20;;;9.33;;
4365;SDS011;2196;47.422;9.656;2023-05-13T05:49:00;9.70;;;8.80;;
4365;SDS011;2196;47.422;9.656;2023-05-13T05:51:28;9.60;;;8.80;;
4365;SDS011;2196;47.422;9.656;2023-05-13T05:53:55;10.70;;;9.77;;
4365;SDS011;2196;47.422;9.656;2023-05-13T05:56:21;10.97;;;10.07;;
4365;SDS011;2196;47.422;9.656;2023-05-13T05:58:50;10.07;;;9.20;;
4365;SDS011;2196;47.422;9.656;2023-05-13T06:01:17;9.23;;;8.37;;
4365;SDS011;2196;47.422;9.656;2023-05-13T06:03:44;11.00;;;10.10;;
4365;SDS011;2196;47.422;9.656;2023-05-13T06:06:11;11.37;;;10.37;;
4365;SDS011;2196;47.422;9.656;2023-05-13T06:08:38;10.93;;;9.83;;
4365;SDS011;2196;47.422;9.656;2023-05-13T06:11:05;10.90;;;9.87;;
4365;SDS011;2196;47.422;9.656;2023-05-13T06:13:32;10.43;;;9.17;;
4365;SDS011;2196;47.422;9.656;2023-05-13T06:16:00;11.48;;;10.38;;
4365;SDS011;2196;47.422;9.656;2023-05-13T06:18:28;11.63;;;10.57;;
4365;SDS011;2196;47.422;9.656;2023-05-13T06:20:55;9.77;;;8.77;;
4365;SDS011;2196;47.422;9.656;2023-05-13T06:23:21;15.93;;;10.07;;
4365;SDS011;2196;47.422;9.656;2023-05-13T06:25:48;10.97;;;9.90;;
4365;SDS011;2196;47.422;9.656;2023-05-13T06:28:16;11.80;;;10.63;;
4365;SDS011;2196;47.422;9.656;2023-05-13T06:30:43;11.33;;;10.33;;
4365;SDS011;2196;47.422;9.656;2023-05-13T06:33:11;13.63;;;10.13;;
4365;SDS011;2196;47.422;9.656;2023-05-13T06:35:38;12.13;;;10.33;;
4365;SDS011;2196;47.422;9.656;2023-05-13T06:38:05;12.70;;;11.10;;
4365;SDS011;2196;47.422;9.656;2023-05-13T06:40:32;12.57;;;10.87;;
4365;SDS011;2196;47.422;9.656;2023-05-13T06:43:00;12.50;;;11.30;;
4365;SDS011;2196;47.422;9.656;2023-05-13T06:45:27;15.23;;;10.83;;
4365;SDS011;2196;47.422;9.656;2023-05-13T06:47:53;10.47;;;9.17;;
4365;SDS011;2196;47.422;9.656;2023-05-13T06:50:22;8.37;;;7.53;;
4365;SDS011;2196;47.422;9.656;2023-05-13T06:52:49;8.77;;;7.90;;
4365;SDS011;2196;47.422;9.656;2023-05-13T06:55:16;8.30;;;7.30;;
4365;SDS011;2196;47.422;9.656;2023-05-13T06:57:43;6.30;;;5.90;;
4365;SDS011;2196;47.422;9.656;2023-05-13T07:00:11;5.37;;;4.97;;
4365;SDS011;2196;47.422;9.656;2023-05-13T07:02:39;5.20;;;4.70;;
4365;SDS011;2196;47.422;9.656;2023-05-13T07:05:06;5.07;;;4.77;;
4365;SDS011;2196;47.422;9.656;2023-05-13T07:07:38;8.50;;;7.70;;
4365;SDS011;2196;47.422;9.656;2023-05-13T07:10:06;7.73;;;6.93;;
4365;SDS011;2196;47.422;9.656;2023-05-13T07:12:35;6.97;;;6.40;;
4365;SDS011;2196;47.422;9.656;2023-05-13T07:15:03;6.57;;;5.97;;
4365;SDS011;2196;47.422;9.656;2023-05-13T07:17:30;6.77;;;5.97;;
4365;SDS011;2196;47.422;9.656;2023-05-13T07:20:00;7.53;;;6.73;;
4365;SDS011;2196;47.422;9.656;2023-05-13T07:22:27;7.93;;;7.13;;
4365;SDS011;2196;47.422;9.656;2023-05-13T07:24:56;9.03;;;8.20;;
4365;SDS011;2196;47.422;9.656;2023-05-13T07:27:23;9.07;;;8.27;;
4365;SDS011;2196;47.422;9.656;2023-05-13T07:29:50;9.40;;;8.60;;
4365;SDS011;2196;47.422;9.656;2023-05-13T07:32:17;10.20;;;9.40;;
4365;SDS011;2196;47.422;9.656;2023-05-13T07:34:44;10.73;;;9.27;;
4365;SDS011;2196;47.422;9.656;2023-05-13T07:37:11;10.60;;;9.70;;
4365;SDS011;2196;47.422;9.656;2023-05-13T07:39:38;14.70;;;12.63;;
4365;SDS011;2196;47.422;9.656;2023-05-13T07:42:07;12.23;;;11.13;;
4365;SDS011;2196;47.422;9.656;2023-05-13T07:44:34;11.03;;;9.93;;
4365;SDS011;2196;47.422;9.656;2023-05-13T07:47:01;12.07;;;10.70;;
4365;SDS011;2196;47.422;9.656;2023-05-13T07:49:28;11.53;;;10.30;;
4365;SDS011;2196;47.422;9.656;2023-05-13T07:51:54;13.70;;;10.90;;
4365;SDS011;2196;47.422;9.656;2023-05-13T07:54:21;11.73;;;10.70;;
4365;SDS011;2196;47.422;9.656;2023-05-13T07:56:48;12.17;;;11.13;;
4365;SDS011;2196;47.422;9.656;2023-05-13T07:59:17;12.57;;;11.30;;
4365;SDS011;2196;47.422;9.656;2023-05-13T08:01:44;11.30;;;10.30;;
4365;SDS011;2196;47.422;9.656;2023-05-13T08:04:11;13.07;;;10.70;;
4365;SDS011;2196;47.422;9.656;2023-05-13T08:06:38;12.10;;;10.57;;
4365;SDS011;2196;47.422;9.656;2023-05-13T08:09:05;11.87;;;10.63;;
4365;SDS011;2196;47.422;9.656;2023-05-13T08:11:34;11.87;;;10.70;;
4365;SDS011;2196;47.422;9.656;2023-05-13T08:14:01;10.47;;;9.33;;
4365;SDS011;2196;47.422;9.656;2023-05-13T08:16:29;11.20;;;10.10;;
4365;SDS011;2196;47.422;9.656;2023-05-13T08:18:56;12.03;;;10.70;;
4365;SDS011;2196;47.422;9.656;2023-05-13T08:21:23;11.97;;;10.77;;
4365;SDS011;2196;47.422;9.656;2023-05-13T08:23:50;11.47;;;10.30;;
4365;SDS011;2196;47.422;9.656;2023-05-13T08:26:16;12.67;;;11.30;;
4365;SDS011;2196;47.422;9.656;2023-05-13T08:28:43;12.13;;;10.83;;
4365;SDS011;2196;47.422;9.656;2023-05-13T08:31:11;12.57;;;11.23;;
4365;SDS011;2196;47.422;9.656;2023-05-13T08:33:39;9.87;;;8.97;;
4365;SDS011;2196;47.422;9.656;2023-05-13T08:36:07;12.37;;;11.17;;
4365;SDS011;2196;47.422;9.656;2023-05-13T08:38:34;12.00;;;11.00;;
4365;SDS011;2196;47.422;9.656;2023-05-13T08:41:02;11.93;;;10.70;;
4365;SDS011;2196;47.422;9.656;2023-05-13T08:43:30;13.03;;;11.30;;
4365;SDS011;2196;47.422;9.656;2023-05-13T08:45:58;12.80;;;11.50;;
4365;SDS011;2196;47.422;9.656;2023-05-13T08:48:28;11.50;;;10.47;;
4365;SDS011;2196;47.422;9.656;2023-05-13T08:50:57;11.67;;;10.37;;
4365;SDS011;2196;47.422;9.656;2023-05-13T08:53:26;11.33;;;10.33;;
4365;SDS011;2196;47.422;9.656;2023-05-13T08:55:53;12.80;;;11.50;;
4365;SDS011;2196;47.422;9.656;2023-05-13T08:58:20;12.70;;;11.13;;
4365;SDS011;2196;47.422;9.656;2023-05-13T09:00:47;10.17;;;9.13;;
4365;SDS011;2196;47.422;9.656;2023-05-13T09:03:14;12.13;;;10.67;;
4365;SDS011;2196;47.422;9.656;2023-05-13T09:05:42;11.57;;;9.90;;
4365;SDS011;2196;47.422;9.656;2023-05-13T09:08:11;11.77;;;10.60;;
4365;SDS011;2196;47.422;9.656;2023-05-13T09:10:38;12.23;;;10.67;;
4365;SDS011;2196;47.422;9.656;2023-05-13T09:13:05;12.37;;;11.07;;
4365;SDS011;2196;47.422;9.656;2023-05-13T09:15:32;12.77;;;11.13;;
4365;SDS011;2196;47.422;9.656;2023-05-13T09:18:00;12.60;;;11.40;;
4365;SDS011;2196;47.422;9.656;2023-05-13T09:20:28;11.10;;;9.93;;
4365;SDS011;2196;47.422;9.656;2023-05-13T09:22:57;13.57;;;11.40;;
4365;SDS011;2196;47.422;9.656;2023-05-13T09:25:27;12.23;;;10.97;;
4365;SDS011;2196;47.422;9.656;2023-05-13T09:27:55;11.33;;;10.23;;
4365;SDS011;2196;47.422;9.656;2023-05-13T09:30:24;13.03;;;11.13;;
4365;SDS011;2196;47.422;9.656;2023-05-13T09:33:05;11.97;;;10.77;;
4365;SDS011;2196;47.422;9.656;2023-05-13T09:35:34;12.53;;;11.30;;
4365;SDS011;2196;47.422;9.656;2023-05-13T09:38:10;12.00;;;10.87;;
4365;SDS011;2196;47.422;9.656;2023-05-13T09:40:40;13.10;;;10.60;;
4365;SDS011;2196;47.422;9.656;2023-05-13T09:43:14;11.53;;;10.43;;
4365;SDS011;2196;47.422;9.656;2023-05-13T09:45:43;13.90;;;11.93;;
4365;SDS011;2196;47.422;9.656;2023-05-13T09:48:10;12.80;;;11.47;;
4365;SDS011;2196;47.422;9.656;2023-05-13T09:50:45;11.63;;;10.43;;
4365;SDS011;2196;47.422;9.656;2023-05-13T09:53:13;12.63;;;10.87;;
4365;SDS011;2196;47.422;9.656;2023-05-13T09:55:44;12.00;;;10.90;;
4365;SDS011;2196;47.422;9.656;2023-05-13T09:58:11;10.53;;;9.53;;
4365;SDS011;2196;47.422;9.656;2023-05-13T10:00:39;9.80;;;9.00;;
4365;SDS011;2196;47.422;9.656;2023-05-13T10:03:07;10.07;;;9.10;;
4365;SDS011;2196;47.422;9.656;2023-05-13T10:05:35;11.00;;;10.00;;
4365;SDS011;2196;47.422;9.656;2023-05-13T10:08:04;11.60;;;10.50;;
4365;SDS011;2196;47.422;9.656;2023-05-13T10:10:34;10.27;;;9.33;;
4365;SDS011;2196;47.422;9.656;2023-05-13T10:13:04;10.27;;;9.37;;
4365;SDS011;2196;47.422;9.656;2023-05-13T10:15:35;9.07;;;8.23;;
4365;SDS011;2196;47.422;9.656;2023-05-13T10:18:08;10.13;;;9.30;;
4365;SDS011;2196;47.422;9.656;2023-05-13T10:20:38;10.67;;;9.80;;
4365;SDS011;2196;47.422;9.656;2023-05-13T10:23:05;10.60;;;9.60;;
4365;SDS011;2196;47.422;9.656;2023-05-13T10:25:33;8.77;;;8.17;;
4365;SDS011;2196;47.422;9.656;2023-05-13T10:28:00;9.77;;;8.97;;
4365;SDS011;2196;47.422;9.656;2023-05-13T10:30:30;9.23;;;8.53;;
4365;SDS011;2196;47.422;9.656;2023-05-13T10:32:59;9.90;;;9.10;;
4365;SDS011;2196;47.422;9.656;2023-05-13T10:35:29;9.90;;;9.03;;
4365;SDS011;2196;47.422;9.656;2023-05-13T10:38:00;9.30;;;8.60;;
4365;SDS011;2196;47.422;9.656;2023-05-13T10:43:33;11.53;;;9.03;;
4365;SDS011;2196;47.422;9.656;2023-05-13T10:46:02;9.23;;;8.53;;
4365;SDS011;2196;47.422;9.656;2023-05-13T10:48:36;9.27;;;8.57;;
4365;SDS011;2196;47.422;9.656;2023-05-13T10:51:05;9.80;;;9.00;;
4365;SDS011;2196;47.422;9.656;2023-05-13T10:53:35;10.23;;;9.33;;
4365;SDS011;2196;47.422;9.656;2023-05-13T10:56:03;9.90;;;9.13;;
4365;SDS011;2196;47.422;9.656;2023-05-13T10:58:34;10.93;;;9.87;;
4365;SDS011;2196;47.422;9.656;2023-05-13T11:01:15;9.97;;;9.20;;
4365;SDS011;2196;47.422;9.656;2023-05-13T11:03:49;9.87;;;9.07;;
4365;SDS011;2196;47.422;9.656;2023-05-13T11:06:18;9.13;;;8.23;;
4365;SDS011;2196;47.422;9.656;2023-05-13T11:08:47;9.47;;;8.73;;
4365;SDS011;2196;47.422;9.656;2023-05-13T11:11:22;9.53;;;8.70;;
4365;SDS011;2196;47.422;9.656;2023-05-13T11:16:46;9.27;;;8.53;;
4365;SDS011;2196;47.422;9.656;2023-05-13T11:19:18;10.37;;;9.37;;
4365;SDS011;2196;47.422;9.656;2023-05-13T11:21:47;10.03;;;9.17;;
4365;SDS011;2196;47.422;9.656;2023-05-13T11:24:17;9.93;;;8.93;;
4365;SDS011;2196;47.422;9.656;2023-05-13T11:26:45;9.60;;;8.70;;
4365;SDS011;2196;47.422;9.656;2023-05-13T11:29:13;9.53;;;8.67;;
4365;SDS011;2196;47.422;9.656;2023-05-13T11:31:52;9.87;;;8.97;;
4365;SDS011;2196;47.422;9.656;2023-05-13T11:34:21;9.43;;;8.63;;
4365;SDS011;2196;47.422;9.656;2023-05-13T11:36:50;10.77;;;9.70;;
4365;SDS011;2196;47.422;9.656;2023-05-13T11:39:21;10.53;;;9.53;;
4365;SDS011;2196;47.422;9.656;2023-05-13T11:41:51;10.60;;;9.00;;
4365;SDS011;2196;47.422;9.656;2023-05-13T11:44:21;10.63;;;9.30;;
4365;SDS011;2196;47.422;9.656;2023-05-13T11:46:49;10.87;;;9.87;;
4365;SDS011;2196;47.422;9.656;2023-05-13T11:49:33;10.43;;;9.33;;
4365;SDS011;2196;47.422;9.656;2023-05-13T11:52:04;8.47;;;7.83;;
4365;SDS011;2196;47.422;9.656;2023-05-13T11:54:33;9.13;;;8.43;;
4365;SDS011;2196;47.422;9.656;2023-05-13T11:57:12;11.63;;;9.60;;
4365;SDS011;2196;47.422;9.656;2023-05-13T11:59:51;11.07;;;9.97;;
4365;SDS011;2196;47.422;9.656;2023-05-13T12:02:20;9.10;;;8.30;;
4365;SDS011;2196;47.422;9.656;2023-05-13T12:04:47;11.73;;;10.77;;
4365;SDS011;2196;47.422;9.656;2023-05-13T12:07:18;10.20;;;9.13;;
4365;SDS011;2196;47.422;9.656;2023-05-13T12:09:45;10.10;;;9.20;;
4365;SDS011;2196;47.422;9.656;2023-05-13T12:12:12;10.93;;;9.83;;
4365;SDS011;2196;47.422;9.656;2023-05-13T12:14:40;11.10;;;9.87;;
4365;SDS011;2196;47.422;9.656;2023-05-13T12:17:09;10.87;;;9.90;;
4365;SDS011;2196;47.422;9.656;2023-05-13T12:19:36;9.70;;;8.87;;
4365;SDS011;2196;47.422;9.656;2023-05-13T12:22:03;11.67;;;10.43;;
4365;SDS011;2196;47.422;9.656;2023-05-13T12:24:31;11.63;;;10.53;;
4365;SDS011;2196;47.422;9.656;2023-05-13T12:27:03;13.00;;;10.20;;
4365;SDS011;2196;47.422;9.656;2023-05-13T12:29:38;9.87;;;9.00;;
4365;SDS011;2196;47.422;9.656;2023-05-13T12:32:06;9.63;;;8.73;;
4365;SDS011;2196;47.422;9.656;2023-05-13T12:34:36;9.97;;;8.93;;
4365;SDS011;2196;47.422;9.656;2023-05-13T12:37:10;10.37;;;9.57;;
4365;SDS011;2196;47.422;9.656;2023-05-13T12:39:38;10.50;;;9.60;;
4365;SDS011;2196;47.422;9.656;2023-05-13T12:42:06;10.57;;;9.67;;
4365;SDS011;2196;47.422;9.656;2023-05-13T12:44:40;9.43;;;8.70;;
4365;SDS011;2196;47.422;9.656;2023-05-13T12:47:09;9.93;;;9.03;;
4365;SDS011;2196;47.422;9.656;2023-05-13T12:49:51;8.83;;;8.07;;
4365;SDS011;2196;47.422;9.656;2023-05-13T12:52:19;8.97;;;8.27;;
4365;SDS011;2196;47.422;9.656;2023-05-13T12:54:46;8.10;;;7.40;;
4365;SDS011;2196;47.422;9.656;2023-05-13T12:57:14;8.93;;;8.13;;
4365;SDS011;2196;47.422;9.656;2023-05-13T12:59:41;8.20;;;7.60;;
4365;SDS011;2196;47.422;9.656;2023-05-13T13:02:10;7.87;;;7.27;;
4365;SDS011;2196;47.422;9.656;2023-05-13T13:04:38;7.50;;;6.80;;
4365;SDS011;2196;47.422;9.656;2023-05-13T13:07:05;6.03;;;5.60;;
4365;SDS011;2196;47.422;9.656;2023-05-13T13:09:36;6.70;;;6.10;;
4365;SDS011;2196;47.422;9.656;2023-05-13T13:12:03;6.70;;;6.20;;
4365;SDS011;2196;47.422;9.656;2023-05-13T13:14:31;8.13;;;7.53;;
4365;SDS011;2196;47.422;9.656;2023-05-13T13:16:58;7.00;;;6.43;;
4365;SDS011;2196;47.422;9.656;2023-05-13T13:19:26;6.10;;;5.67;;
4365;SDS011;2196;47.422;9.656;2023-05-13T13:21:53;5.07;;;4.87;;
4365;SDS011;2196;47.422;9.656;2023-05-13T13:24:20;8.13;;;6.70;;
4365;SDS011;2196;47.422;9.656;2023-05-13T13:26:47;5.53;;;5.20;;
4365;SDS011;2196;47.422;9.656;2023-05-13T13:29:14;6.30;;;5.80;;
4365;SDS011;2196;47.422;9.656;2023-05-13T13:31:41;6.33;;;5.83;;
4365;SDS011;2196;47.422;9.656;2023-05-13T13:34:08;6.60;;;6.17;;
4365;SDS011;2196;47.422;9.656;2023-05-13T13:36:37;7.53;;;6.93;;
4365;SDS011;2196;47.422;9.656;2023-05-13T13:39:04;8.10;;;6.50;;
4365;SDS011;2196;47.422;9.656;2023-05-13T13:41:31;8.10;;;7.50;;
4365;SDS011;2196;47.422;9.656;2023-05-13T13:43:58;11.00;;;8.50;;
4365;SDS011;2196;47.422;9.656;2023-05-13T13:46:25;8.67;;;7.87;;
4365;SDS011;2196;47.422;9.656;2023-05-13T13:48:52;19.17;;;11.47;;
4365;SDS011;2196;47.422;9.656;2023-05-13T13:51:20;33.87;;;13.57;;
4365;SDS011;2196;47.422;9.656;2023-05-13T13:53:49;39.50;;;11.93;;
4365;SDS011;2196;47.422;9.656;2023-05-13T13:56:16;9.33;;;8.53;;
4365;SDS011;2196;47.422;9.656;2023-05-13T13:58:44;12.00;;;10.20;;
4365;SDS011;2196;47.422;9.656;2023-05-13T14:01:11;26.87;;;10.60;;
4365;SDS011;2196;47.422;9.656;2023-05-13T14:03:38;57.50;;;17.13;;
4365;SDS011;2196;47.422;9.656;2023-05-13T14:06:05;52.47;;;18.23;;
4365;SDS011;2196;47.422;9.656;2023-05-13T14:08:33;67.10;;;18.70;;
4365;SDS011;2196;47.422;9.656;2023-05-13T14:11:02;15.07;;;10.30;;
4365;SDS011;2196;47.422;9.656;2023-05-13T14:13:29;14.60;;;8.67;;
4365;SDS011;2196;47.422;9.656;2023-05-13T14:15:56;9.13;;;8.23;;
4365;SDS011;2196;47.422;9.656;2023-05-13T14:18:23;9.13;;;8.33;;
4365;SDS011;2196;47.422;9.656;2023-05-13T14:20:51;10.03;;;9.13;;
4365;SDS011;2196;47.422;9.656;2023-05-13T14:23:18;9.57;;;8.70;;
4365;SDS011;2196;47.422;9.656;2023-05-13T14:25:45;10.60;;;9.70;;
4365;SDS011;2196;47.422;9.656;2023-05-13T14:28:14;10.30;;;9.40;;
4365;SDS011;2196;47.422;9.656;2023-05-13T14:30:41;11.27;;;10.13;;
4365;SDS011;2196;47.422;9.656;2023-05-13T14:33:09;10.40;;;9.40;;
4365;SDS011;2196;47.422;9.656;2023-05-13T14:35:36;10.03;;;9.17;;
4365;SDS011;2196;47.422;9.656;2023-05-13T14:38:03;10.63;;;9.43;;
4365;SDS011;2196;47.422;9.656;2023-05-13T14:40:30;10.77;;;9.83;;
4365;SDS011;2196;47.422;9.656;2023-05-13T14:42:58;10.37;;;8.90;;
4365;SDS011;2196;47.422;9.656;2023-05-13T14:45:26;8.70;;;7.90;;
4365;SDS011;2196;47.422;9.656;2023-05-13T14:47:54;7.53;;;7.00;;
4365;SDS011;2196;47.422;9.656;2023-05-13T14:50:21;6.37;;;5.77;;
4365;SDS011;2196;47.422;9.656;2023-05-13T14:52:48;4.73;;;4.03;;
4365;SDS011;2196;47.422;9.656;2023-05-13T14:55:15;5.13;;;4.83;;
4365;SDS011;2196;47.422;9.656;2023-05-13T14:57:42;3.87;;;3.67;;
4365;SDS011;2196;47.422;9.656;2023-05-13T15:00:10;5.80;;;3.90;;
4365;SDS011;2196;47.422;9.656;2023-05-13T15:02:40;3.83;;;3.60;;
4365;SDS011;2196;47.422;9.656;2023-05-13T15:05:07;4.17;;;3.97;;
4365;SDS011;2196;47.422;9.656;2023-05-13T15:07:36;3.23;;;3.07;;
4365;SDS011;2196;47.422;9.656;2023-05-13T15:10:04;1.90;;;1.80;;
4365;SDS011;2196;47.422;9.656;2023-05-13T15:12:31;1.60;;;1.60;;
4365;SDS011;2196;47.422;9.656;2023-05-13T15:15:02;1.97;;;1.87;;
4365;SDS011;2196;47.422;9.656;2023-05-13T15:17:29;1.60;;;1.53;;
4365;SDS011;2196;47.422;9.656;2023-05-13T15:19:58;1.50;;;1.50;;